Myrtle Beach, South Carolina
Current Conditions -  °F | °C
As of 4:45 PM on Friday 28 Nov 2014 (Local Time) from KMYR Reporting Station
Clear Clear  
Wind Chill: 44°   Ceiling: Unl
Heat Index: 46°   Visibility: 10mi
Dew Point: 21°   Wind: 6mph
Humidity: 37%   Direction: 330°NNW
Pressure: 30.32"   Gusts: NA
Location:  33.69°N, 78.88°W
Report Text: KMYR 282145Z 33005KT 10SM CLR 08/M06 A3032
Loading
Personal Weather Stations






























Interactive Weather Map New forecast layout! Learn more

10-Day Weather Forecast

Advertisements
Track Severe Weather on mobile